Time;durP1;ratioP1;P1;durP2;ratioP2;P2;SDS_P1;SDS_P2;PMS_P1;PMS_P2;Temp;Humidity;BMP_temperature;BMP_pressure;BME280_temperature;BME280_humidity;BME280_pressure;Samples;Min_cycle;Max_cycle;Signal;HPM_P1;HPM_P2
2021/05/05 00:01:28;;;;;;;1.90;0.70;;;;;;;6.64;100.00;95402.59;4914285;29;20652;-73
2021/05/05 00:03:55;;;;;;;3.90;1.00;;;;;;;6.66;100.00;95398.13;4920855;28;20219;-74
2021/05/05 00:06:22;;;;;;;1.58;0.70;;;;;;;6.65;100.00;95406.81;4944209;28;20254;-74
2021/05/05 00:08:49;;;;;;;3.50;0.70;;;;;;;6.64;100.00;95418.09;4933534;28;20222;-72
2021/05/05 00:11:16;;;;;;;1.30;0.77;;;;;;;6.62;100.00;95414.78;4944597;28;20828;-73
2021/05/05 00:13:44;;;;;;;0.90;0.57;;;;;;;6.62;100.00;95417.38;4948104;28;20230;-73
2021/05/05 00:16:11;;;;;;;1.50;0.70;;;;;;;6.64;100.00;95411.16;4943667;28;20520;-73
2021/05/05 00:18:38;;;;;;;3.30;0.80;;;;;;;6.56;100.00;95416.00;4936937;28;20637;-73
2021/05/05 00:21:06;;;;;;;2.80;0.75;;;;;;;6.52;100.00;95417.16;4936707;28;20605;-73
2021/05/05 00:23:33;;;;;;;2.33;0.63;;;;;;;6.52;100.00;95424.06;4942780;28;20615;-74
2021/05/05 00:26:01;;;;;;;2.20;0.60;;;;;;;6.47;100.00;95426.13;4942544;28;20694;-73
2021/05/05 00:28:28;;;;;;;5.60;1.15;;;;;;;6.45;100.00;95423.63;4944286;28;20191;-72
2021/05/05 00:30:56;;;;;;;5.78;0.70;;;;;;;6.41;100.00;95429.09;4946389;28;20195;-73
2021/05/05 00:33:23;;;;;;;4.47;0.60;;;;;;;6.43;100.00;95429.81;4941121;28;20219;-73
2021/05/05 00:35:50;;;;;;;1.00;0.90;;;;;;;6.38;100.00;95408.63;4939677;28;20697;-73
2021/05/05 00:38:16;;;;;;;2.28;1.13;;;;;;;6.32;100.00;95409.84;4942266;28;20198;-74
2021/05/05 00:40:44;;;;;;;8.65;0.80;;;;;;;6.34;100.00;95407.19;4942020;28;20761;-73
2021/05/05 00:43:10;;;;;;;4.45;0.93;;;;;;;6.29;100.00;95397.13;4940436;28;20667;-73
2021/05/05 00:45:37;;;;;;;11.70;1.15;;;;;;;6.34;100.00;95392.47;4940452;28;20281;-71
2021/05/05 00:48:06;;;;;;;5.47;1.20;;;;;;;6.33;100.00;95387.44;4947421;28;20199;-72
2021/05/05 00:50:33;;;;;;;21.70;9.02;;;;;;;6.28;100.00;95373.97;4939191;28;20587;-73
2021/05/05 00:53:00;;;;;;;5.25;0.90;;;;;;;6.28;100.00;95371.41;4938608;28;20199;-70
2021/05/05 00:55:27;;;;;;;3.47;1.00;;;;;;;6.30;100.00;95359.19;4947129;28;20613;-71
2021/05/05 00:57:54;;;;;;;12.50;1.30;;;;;;;6.30;100.00;95370.38;4936581;28;20265;-71
2021/05/05 01:00:23;;;;;;;2.08;1.13;;;;;;;6.26;100.00;95362.94;4937639;28;20782;-69
2021/05/05 01:02:49;;;;;;;1.90;1.10;;;;;;;6.24;100.00;95354.44;4943331;28;20187;-69
2021/05/05 01:05:17;;;;;;;2.10;1.00;;;;;;;6.25;100.00;95328.50;4923267;28;20231;-71
2021/05/05 01:07:44;;;;;;;2.38;0.90;;;;;;;6.30;100.00;95333.38;4938302;28;20242;-71
2021/05/05 01:10:13;;;;;;;1.00;0.70;;;;;;;6.35;100.00;95347.63;4920876;28;20231;-70
2021/05/05 01:12:41;;;;;;;5.00;1.08;;;;;;;6.35;100.00;95357.16;4925035;29;20605;-70
2021/05/05 01:15:10;;;;;;;6.15;1.00;;;;;;;6.35;100.00;95351.97;4926704;28;20753;-72
2021/05/05 01:17:37;;;;;;;2.65;0.90;;;;;;;6.37;100.00;95340.63;4919772;29;20188;-72
2021/05/05 01:20:05;;;;;;;6.03;1.10;;;;;;;6.41;100.00;95349.00;4922142;28;20216;-69
2021/05/05 01:22:33;;;;;;;6.90;0.95;;;;;;;6.31;100.00;95351.34;4926555;29;20199;-70
2021/05/05 01:25:00;;;;;;;1.85;0.80;;;;;;;6.34;100.00;95345.16;4929083;29;20500;-70
2021/05/05 01:27:27;;;;;;;6.38;1.23;;;;;;;6.30;100.00;95349.69;4922746;29;20765;-71
2021/05/05 01:29:54;;;;;;;3.70;1.00;;;;;;;6.31;100.00;95361.69;4926592;29;20235;-70
2021/05/05 01:32:21;;;;;;;2.85;0.80;;;;;;;6.29;100.00;95357.53;4929522;29;20539;-71
2021/05/05 01:34:48;;;;;;;4.10;1.17;;;;;;;6.28;100.00;95350.72;4921611;29;20685;-70
2021/05/05 01:37:15;;;;;;;6.70;1.23;;;;;;;6.33;100.00;95340.94;4924521;29;20750;-70
2021/05/05 01:39:45;;;;;;;2.15;1.17;;;;;;;6.35;100.00;95346.81;4921274;29;20619;-72
2021/05/05 01:42:12;;;;;;;3.63;0.90;;;;;;;6.37;100.00;95339.78;4923823;29;20251;-72
2021/05/05 01:44:40;;;;;;;2.33;0.90;;;;;;;6.37;100.00;95350.97;4927020;29;20227;-72
2021/05/05 01:47:11;;;;;;;13.07;1.17;;;;;;;6.39;100.00;95343.09;4921999;29;20830;-73
2021/05/05 01:49:42;;;;;;;7.75;0.80;;;;;;;6.38;100.00;95341.44;4924226;29;20243;-70
2021/05/05 01:52:09;;;;;;;3.53;0.95;;;;;;;6.37;100.00;95353.53;4923754;29;20590;-70
2021/05/05 01:54:37;;;;;;;2.08;0.98;;;;;;;6.30;100.00;95369.53;4925324;28;20695;-71
2021/05/05 01:57:31;;;;;;;3.72;0.70;;;;;;;6.23;100.00;95363.09;4923192;28;20699;-70
2021/05/05 02:00:00;;;;;;;1.98;0.90;;;;;;;6.17;100.00;95358.34;4920279;29;20239;-70
2021/05/05 02:02:51;;;;;;;5.35;1.05;;;;;;;6.23;100.00;95348.44;4919878;29;20192;-71
2021/05/05 02:05:19;;;;;;;3.33;1.05;;;;;;;6.25;100.00;95348.34;4901088;29;20306;-71
2021/05/05 02:07:47;;;;;;;0.82;0.60;;;;;;;6.28;100.00;95335.22;4901604;29;20695;-71
2021/05/05 02:10:17;;;;;;;3.95;0.70;;;;;;;6.27;100.00;95336.16;4905557;29;20696;-71
2021/05/05 02:12:45;;;;;;;2.63;0.90;;;;;;;6.18;100.00;95319.50;4905485;29;20605;-70
2021/05/05 02:15:15;;;;;;;3.35;0.88;;;;;;;6.31;100.00;95347.94;4904676;29;20715;-72
2021/05/05 02:17:41;;;;;;;4.50;1.17;;;;;;;6.36;100.00;95335.53;4903725;29;20656;-76
2021/05/05 02:20:10;;;;;;;1.55;0.80;;;;;;;6.35;100.00;95333.91;4906294;29;20544;-73
2021/05/05 02:22:38;;;;;;;3.95;1.30;;;;;;;6.33;100.00;95328.81;4905281;29;20267;-72
2021/05/05 02:25:07;;;;;;;1.42;0.80;;;;;;;6.33;100.00;95334.00;4906058;29;20220;-72
2021/05/05 02:27:35;;;;;;;3.92;0.85;;;;;;;6.34;100.00;95348.56;4907335;29;20553;-72
2021/05/05 02:30:04;;;;;;;2.55;0.77;;;;;;;6.37;100.00;95352.69;4902406;29;20309;-72
2021/05/05 02:32:31;;;;;;;7.22;1.33;;;;;;;6.35;100.00;95349.41;4904571;29;20672;-72
2021/05/05 02:34:58;;;;;;;1.92;1.02;;;;;;;6.35;100.00;95351.97;4902713;29;20228;-72
2021/05/05 02:37:25;;;;;;;4.13;0.90;;;;;;;6.40;100.00;95347.34;4901667;29;20682;-73
2021/05/05 02:39:53;;;;;;;2.95;0.70;;;;;;;6.36;100.00;95341.56;4901266;29;20315;-73
2021/05/05 02:42:20;;;;;;;5.40;0.80;;;;;;;6.31;100.00;95353.94;4896995;29;20192;-72
2021/05/05 02:44:49;;;;;;;2.95;0.85;;;;;;;6.18;100.00;95334.19;4903503;29;20612;-71
2021/05/05 02:47:18;;;;;;;4.28;1.45;;;;;;;6.26;100.00;95360.34;4909238;29;20192;-72
2021/05/05 02:49:46;;;;;;;1.67;0.93;;;;;;;6.25;100.00;95356.09;4904376;29;20738;-72
2021/05/05 02:52:13;;;;;;;2.47;0.88;;;;;;;6.21;100.00;95355.47;4899493;29;20243;-72
2021/05/05 02:54:41;;;;;;;2.05;0.70;;;;;;;6.18;100.00;95360.81;4902442;29;20508;-72
2021/05/05 02:57:08;;;;;;;1.88;0.80;;;;;;;6.14;100.00;95358.53;4908517;29;20204;-72
2021/05/05 02:59:35;;;;;;;4.15;1.30;;;;;;;6.15;100.00;95360.19;4903181;29;20696;-72
2021/05/05 03:02:02;;;;;;;2.58;0.65;;;;;;;6.20;100.00;95363.31;4901150;29;20189;-73
2021/05/05 03:04:30;;;;;;;5.22;0.70;;;;;;;6.24;100.00;95360.44;4911750;29;20594;-73
2021/05/05 03:06:57;;;;;;;3.15;0.82;;;;;;;6.28;100.00;95358.47;4918786;29;20577;-72
2021/05/05 03:09:26;;;;;;;1.98;0.80;;;;;;;6.24;100.00;95360.44;4925260;28;20227;-73
2021/05/05 03:11:55;;;;;;;0.80;0.57;;;;;;;6.30;100.00;95359.19;4918072;29;20191;-72
2021/05/05 03:14:23;;;;;;;1.60;0.80;;;;;;;6.32;100.00;95347.00;4927480;29;20299;-72
2021/05/05 03:16:50;;;;;;;3.95;0.88;;;;;;;6.25;100.00;95348.34;4919623;29;20200;-72
2021/05/05 03:19:17;;;;;;;3.45;0.88;;;;;;;6.25;100.00;95336.25;4931724;28;20294;-71
2021/05/05 03:21:45;;;;;;;3.75;0.77;;;;;;;6.27;100.00;95344.72;4924635;29;20191;-72
2021/05/05 03:24:13;;;;;;;5.32;0.90;;;;;;;6.26;100.00;95347.44;4917317;28;20529;-72
2021/05/05 03:26:40;;;;;;;1.73;0.70;;;;;;;6.26;100.00;95352.59;4922516;29;20544;-73
2021/05/05 03:29:07;;;;;;;6.38;0.68;;;;;;;6.29;100.00;95342.88;4920725;29;20216;-72
2021/05/05 03:31:35;;;;;;;1.95;0.80;;;;;;;6.32;100.00;95347.00;4919595;29;20190;-73
2021/05/05 03:34:03;;;;;;;5.03;1.15;;;;;;;6.35;100.00;95359.72;4920705;29;20247;-72
2021/05/05 03:36:30;;;;;;;3.25;0.80;;;;;;;6.39;100.00;95374.94;4921700;29;20529;-71
2021/05/05 03:38:58;;;;;;;7.40;0.80;;;;;;;6.36;100.00;95384.63;4912463;29;20755;-73
2021/05/05 03:41:25;;;;;;;2.58;0.75;;;;;;;6.33;100.00;95382.28;4920096;29;20220;-72
2021/05/05 03:43:52;;;;;;;1.75;1.10;;;;;;;6.30;100.00;95374.69;4925350;29;20279;-72
2021/05/05 03:46:19;;;;;;;1.88;0.95;;;;;;;6.32;100.00;95373.69;4922013;29;20184;-72
2021/05/05 03:48:45;;;;;;;3.05;1.20;;;;;;;6.41;100.00;95380.00;4917385;28;20247;-72
2021/05/05 03:51:12;;;;;;;3.90;0.90;;;;;;;6.55;100.00;95373.00;4919979;29;20192;-72
2021/05/05 03:53:40;;;;;;;6.38;2.55;;;;;;;6.60;100.00;95385.63;4917752;29;20239;-72
2021/05/05 03:56:08;;;;;;;1.48;0.95;;;;;;;6.66;100.00;95382.63;4917907;29;20580;-72
2021/05/05 03:58:35;;;;;;;2.55;0.80;;;;;;;6.76;100.00;95378.50;4914220;29;20631;-69
2021/05/05 04:01:03;;;;;;;1.80;0.80;;;;;;;6.72;100.00;95372.72;4924173;29;20250;-70
2021/05/05 04:03:30;;;;;;;1.25;0.63;;;;;;;6.63;100.00;95377.69;4926132;29;20235;-69
2021/05/05 04:05:56;;;;;;;2.65;0.70;;;;;;;6.55;100.00;95373.00;4917263;29;20298;-70
2021/05/05 04:08:23;;;;;;;1.70;0.90;;;;;;;6.56;100.00;95368.66;4920838;28;20575;-68
2021/05/05 04:10:50;;;;;;;1.13;0.60;;;;;;;6.48;100.00;95368.34;4916771;29;20242;-69
2021/05/05 04:13:18;;;;;;;4.00;1.25;;;;;;;6.49;100.00;95377.75;4906737;29;20707;-69
2021/05/05 04:16:04;;;;;;;1.40;0.93;;;;;;;6.34;100.00;95366.66;4917089;29;20543;-71
2021/05/05 04:18:49;;;;;;;2.92;1.40;;;;;;;6.21;100.00;95380.47;4919171;29;20609;-72
2021/05/05 04:21:34;;;;;;;1.45;0.70;;;;;;;6.17;100.00;95379.00;4924102;29;20786;-72
2021/05/05 04:24:19;;;;;;;1.10;0.68;;;;;;;6.11;100.00;95376.84;4925168;28;20230;-72
2021/05/05 04:26:47;;;;;;;1.77;0.60;;;;;;;6.09;100.00;95389.00;4918789;29;20191;-72
2021/05/05 04:29:15;;;;;;;6.88;0.70;;;;;;;6.09;100.00;95404.50;4921626;28;20228;-71
2021/05/05 04:31:42;;;;;;;2.50;0.90;;;;;;;5.95;100.00;95409.69;4925092;29;20652;-71
2021/05/05 04:34:10;;;;;;;1.13;0.70;;;;;;;5.96;100.00;95406.22;4920671;28;20730;-71
2021/05/05 04:36:36;;;;;;;7.60;1.30;;;;;;;5.93;100.00;95406.38;4924504;29;20199;-72
2021/05/05 04:39:04;;;;;;;1.42;0.70;;;;;;;5.95;100.00;95407.13;4924213;28;20848;-72
2021/05/05 04:41:32;;;;;;;1.40;0.60;;;;;;;6.01;100.00;95417.06;4924670;29;20212;-71
2021/05/05 04:43:59;;;;;;;1.10;0.75;;;;;;;6.06;100.00;95413.25;4924186;28;20251;-71
2021/05/05 04:46:26;;;;;;;1.67;0.75;;;;;;;6.01;100.00;95419.66;4919883;29;20608;-72
2021/05/05 04:48:53;;;;;;;2.47;0.75;;;;;;;6.03;100.00;95420.41;4930167;28;20365;-72
2021/05/05 04:51:20;;;;;;;1.33;0.80;;;;;;;6.04;100.00;95434.97;4929210;29;20542;-71
2021/05/05 04:53:47;;;;;;;1.77;0.80;;;;;;;6.06;100.00;95433.09;4925972;28;20238;-71
2021/05/05 04:56:15;;;;;;;1.23;0.60;;;;;;;6.09;100.00;95438.91;4930501;29;20729;-72
2021/05/05 04:58:41;;;;;;;4.55;0.90;;;;;;;6.05;100.00;95434.03;4920384;29;20678;-72
2021/05/05 05:01:10;;;;;;;1.10;0.80;;;;;;;6.12;100.00;95450.81;4924690;29;20196;-72
2021/05/05 05:03:38;;;;;;;1.85;0.80;;;;;;;6.08;100.00;95451.91;4926339;28;20520;-72
2021/05/05 05:06:05;;;;;;;2.40;0.70;;;;;;;6.09;100.00;95443.22;4924080;29;20200;-72
2021/05/05 05:08:32;;;;;;;5.97;0.68;;;;;;;6.07;100.00;95450.25;4920078;28;20188;-72
2021/05/05 05:10:59;;;;;;;0.90;0.70;;;;;;;6.12;100.00;95450.81;4919265;29;20655;-72
2021/05/05 05:13:27;;;;;;;0.80;0.60;;;;;;;6.22;100.00;95459.63;4929455;29;20771;-72
2021/05/05 05:15:54;;;;;;;1.33;0.80;;;;;;;6.22;100.00;95454.44;4912640;29;20226;-73
2021/05/05 05:18:21;;;;;;;6.75;0.80;;;;;;;6.27;100.00;95460.16;4921548;29;20504;-71
2021/05/05 05:20:49;;;;;;;0.90;0.60;;;;;;;6.28;100.00;95454.06;4921029;29;20215;-72
2021/05/05 05:23:16;;;;;;;2.20;0.95;;;;;;;6.30;100.00;95460.81;4925510;29;20199;-71
2021/05/05 05:25:43;;;;;;;2.70;0.90;;;;;;;6.32;100.00;95465.84;4908003;29;20544;-72
2021/05/05 05:28:10;;;;;;;1.70;0.80;;;;;;;6.34;100.00;95467.41;4922611;29;20195;-73
2021/05/05 05:30:37;;;;;;;2.22;0.90;;;;;;;6.34;100.00;95479.53;4928606;28;20216;-71
2021/05/05 05:33:05;;;;;;;3.30;0.70;;;;;;;6.31;100.00;95485.72;4921879;29;20549;-71
2021/05/05 05:35:32;;;;;;;2.20;0.77;;;;;;;6.31;100.00;95480.53;4924103;28;20228;-73
2021/05/05 05:38:00;;;;;;;5.15;0.90;;;;;;;6.30;100.00;95488.38;4927267;29;20520;-72
2021/05/05 05:40:28;;;;;;;4.15;1.20;;;;;;;6.21;100.00;95476.03;4924117;28;20271;-74
2021/05/05 05:42:55;;;;;;;3.97;1.45;;;;;;;6.23;100.00;95487.94;4926527;29;20603;-74
2021/05/05 05:45:22;;;;;;;4.20;0.85;;;;;;;6.19;100.00;95490.81;4921992;28;20626;-73
2021/05/05 05:47:48;;;;;;;2.55;1.10;;;;;;;6.21;100.00;95499.28;4929162;28;20671;-73
2021/05/05 05:50:17;;;;;;;9.73;1.10;;;;;;;6.22;98.54;95498.38;4927104;29;20533;-72
2021/05/05 05:52:44;;;;;;;2.78;1.08;;;;;;;6.22;99.37;95488.88;4926859;29;20706;-74
2021/05/05 05:55:14;;;;;;;8.77;1.50;;;;;;;6.31;99.02;95503.78;4927500;28;20298;-73
2021/05/05 05:57:42;;;;;;;7.90;1.40;;;;;;;6.28;97.76;95505.75;4924189;29;20739;-74
2021/05/05 06:00:12;;;;;;;10.65;1.40;;;;;;;6.30;98.33;95499.56;4924982;28;20261;-75
2021/05/05 06:02:39;;;;;;;4.63;0.95;;;;;;;6.38;97.50;95504.22;4900686;29;20195;-74
2021/05/05 06:05:07;;;;;;;1.63;1.13;;;;;;;6.55;99.30;95499.66;4918898;29;20224;-75
2021/05/05 06:07:34;;;;;;;11.93;2.28;;;;;;;6.65;98.29;95502.47;4917960;29;20694;-74
2021/05/05 06:10:02;;;;;;;2.83;0.98;;;;;;;6.76;98.49;95497.44;4923114;28;20224;-74
2021/05/05 06:12:29;;;;;;;3.20;1.02;;;;;;;6.88;96.57;95507.00;4924281;29;20600;-74
2021/05/05 06:14:57;;;;;;;3.63;2.22;;;;;;;6.95;95.61;95513.41;4921211;28;20227;-74
2021/05/05 06:17:25;;;;;;;1.98;1.05;;;;;;;6.84;94.18;95511.53;4918353;29;20238;-73
2021/05/05 06:19:51;;;;;;;6.50;1.52;;;;;;;6.87;95.13;95519.09;4919887;29;20599;-74
2021/05/05 06:22:19;;;;;;;2.80;0.90;;;;;;;6.84;94.86;95521.06;4924083;29;20548;-73
2021/05/05 06:24:46;;;;;;;7.55;1.23;;;;;;;6.74;96.49;95526.00;4922578;29;20748;-74
2021/05/05 06:27:13;;;;;;;11.02;1.90;;;;;;;6.71;97.63;95520.19;4917938;29;20540;-74
2021/05/05 06:29:42;;;;;;;1.58;1.05;;;;;;;6.98;97.78;95528.72;4921499;28;20227;-74
2021/05/05 06:32:09;;;;;;;3.50;1.15;;;;;;;7.13;97.51;95533.75;4918608;29;20239;-74
2021/05/05 06:34:36;;;;;;;5.53;1.75;;;;;;;7.16;96.62;95532.72;4926563;29;20227;-73
2021/05/05 06:37:03;;;;;;;5.18;1.33;;;;;;;7.46;95.26;95541.03;4920405;29;20722;-74
2021/05/05 06:39:30;;;;;;;7.65;1.20;;;;;;;7.54;88.17;95546.53;4920324;28;20242;-74
2021/05/05 06:41:58;;;;;;;2.97;1.30;;;;;;;7.52;90.05;95540.63;4919687;29;20215;-74
2021/05/05 06:44:25;;;;;;;12.15;1.80;;;;;;;7.62;88.14;95552.00;4924189;28;20219;-74
2021/05/05 06:46:55;;;;;;;5.60;1.15;;;;;;;7.40;85.14;95559.56;4926302;29;20651;-74
2021/05/05 06:49:23;;;;;;;8.37;1.27;;;;;;;7.27;83.98;95561.28;4920632;29;20591;-73
2021/05/05 06:51:51;;;;;;;2.55;0.88;;;;;;;7.17;84.35;95560.25;4923510;29;20448;-73
2021/05/05 06:54:18;;;;;;;3.30;1.15;;;;;;;7.17;83.70;95560.25;4918615;28;20294;-74
2021/05/05 06:56:45;;;;;;;9.77;1.58;;;;;;;7.25;84.93;95568.31;4925882;29;20200;-74
2021/05/05 06:59:12;;;;;;;17.42;1.13;;;;;;;7.40;85.56;95575.09;4919963;28;20294;-74
2021/05/05 07:01:41;;;;;;;6.25;1.58;;;;;;;7.67;85.65;95568.09;4907255;29;20226;-74
2021/05/05 07:04:09;;;;;;;8.25;2.70;;;;;;;7.80;84.49;95581.88;4918448;29;20253;-74
2021/05/05 07:06:37;;;;;;;6.05;1.83;;;;;;;7.82;82.51;95578.25;4919180;29;20250;-74
2021/05/05 07:09:05;;;;;;;4.20;1.50;;;;;;;7.85;81.15;95587.56;4925737;29;20235;-75
2021/05/05 07:11:35;;;;;;;4.82;1.10;;;;;;;7.80;81.76;95576.69;4923256;29;20211;-74
2021/05/05 07:14:03;;;;;;;7.30;1.10;;;;;;;7.86;81.38;95581.47;4926996;29;20588;-74
2021/05/05 07:16:30;;;;;;;4.70;1.23;;;;;;;7.79;79.95;95575.03;4929804;29;20180;-75
2021/05/05 07:18:56;;;;;;;6.95;1.90;;;;;;;7.65;82.74;95583.72;4927122;29;20245;-75
2021/05/05 07:21:25;;;;;;;7.07;1.70;;;;;;;7.69;81.87;95594.69;4927765;29;20211;-72
2021/05/05 07:23:52;;;;;;;2.78;1.13;;;;;;;7.46;79.46;95595.41;4922160;29;20281;-74
2021/05/05 07:26:19;;;;;;;9.82;1.45;;;;;;;7.59;79.90;95598.84;4925550;29;20196;-75
2021/05/05 07:28:46;;;;;;;3.63;1.23;;;;;;;8.02;78.13;95601.03;4924686;28;20215;-73
2021/05/05 07:31:13;;;;;;;10.55;0.98;;;;;;;8.33;76.57;95611.81;4921364;29;20547;-75
2021/05/05 07:33:41;;;;;;;9.13;1.40;;;;;;;8.53;75.19;95603.50;4918925;28;20536;-75
2021/05/05 07:36:13;;;;;;;6.78;1.10;;;;;;;8.67;73.34;95599.94;4930931;29;20783;-74
2021/05/05 07:39:02;;;;;;;7.57;1.53;;;;;;;8.78;73.96;95600.00;4912045;28;20596;-74
2021/05/05 07:47:05;;;;;;;4.70;1.00;;;;;;;8.65;72.74;95602.63;4917121;29;20455;-73
2021/05/05 07:49:39;;;;;;;6.23;1.40;;;;;;;8.56;71.48;95598.09;4923119;28;20534;-73
2021/05/05 07:52:07;;;;;;;4.80;1.07;;;;;;;8.56;71.07;95603.28;4928364;29;20489;-74
2021/05/05 07:54:34;;;;;;;4.37;1.20;;;;;;;8.63;71.38;95607.09;4920836;28;20561;-74
2021/05/05 07:57:00;;;;;;;3.73;1.47;;;;;;;8.46;72.20;95610.03;4928845;29;20498;-75
2021/05/05 07:59:27;;;;;;;3.67;1.37;;;;;;;8.06;73.26;95620.63;4923525;29;20482;-74
2021/05/05 08:01:54;;;;;;;3.93;1.10;;;;;;;7.92;75.57;95627.66;4920310;29;20530;-74
2021/05/05 08:04:21;;;;;;;11.70;1.20;;;;;;;8.41;75.90;95627.69;4927427;28;20605;-74
2021/05/05 08:06:49;;;;;;;7.80;1.70;;;;;;;8.42;73.76;95629.31;4927008;29;20256;-75
2021/05/05 08:09:16;;;;;;;7.13;1.70;;;;;;;8.70;74.76;95630.84;4921903;28;20832;-75
2021/05/05 08:11:44;;;;;;;11.57;1.73;;;;;;;9.13;73.99;95630.28;4923414;29;20476;-73
2021/05/05 08:14:11;;;;;;;6.23;1.10;;;;;;;8.89;70.55;95634.63;4930657;29;20954;-75
2021/05/05 08:16:38;;;;;;;6.77;0.90;;;;;;;8.72;67.58;95626.38;4920769;29;20973;-74
2021/05/05 08:19:08;;;;;;;5.30;1.10;;;;;;;8.85;70.19;95619.41;4928871;29;20894;-74
2021/05/05 08:21:35;;;;;;;5.57;1.23;;;;;;;9.29;67.54;95620.44;4929446;29;20997;-74
2021/05/05 08:24:04;;;;;;;3.13;1.23;;;;;;;9.31;66.92;95615.97;4926502;29;20852;-74
2021/05/05 08:26:31;;;;;;;6.10;1.00;;;;;;;8.85;68.90;95632.38;4926103;29;20451;-73
2021/05/05 08:28:59;;;;;;;6.10;0.97;;;;;;;8.72;67.17;95631.56;4933148;28;20467;-74
2021/05/05 08:31:26;;;;;;;9.73;1.80;;;;;;;8.33;68.90;95627.38;4932994;29;20478;-74
2021/05/05 08:33:53;;;;;;;7.77;1.13;;;;;;;8.34;68.40;95630.81;4931061;29;21008;-74
2021/05/05 08:36:20;;;;;;;2.80;1.15;;;;;;;8.56;69.24;95624.00;4926286;29;20431;-74
2021/05/05 08:38:55;;;;;;;9.47;1.27;;;;;;;9.09;70.43;95626.25;4920205;29;20698;-73
2021/05/05 08:41:22;;;;;;;11.53;1.10;;;;;;;9.22;64.63;95646.97;4924767;29;20803;-74
2021/05/05 08:43:49;;;;;;;5.90;1.33;;;;;;;8.96;64.97;95638.47;4930525;29;20957;-74
2021/05/05 08:46:17;;;;;;;7.13;1.20;;;;;;;8.86;65.13;95628.84;4921831;29;20899;-76
2021/05/05 08:48:45;;;;;;;5.07;1.60;;;;;;;8.92;65.35;95643.97;4925890;29;20221;-74
2021/05/05 08:51:14;;;;;;;7.77;1.13;;;;;;;9.05;62.99;95640.38;4929592;29;20494;-74
2021/05/05 08:53:42;;;;;;;6.73;1.37;;;;;;;9.51;63.83;95627.53;4925427;29;20817;-73
2021/05/05 08:56:09;;;;;;;7.90;1.10;;;;;;;9.22;58.74;95632.22;4926062;29;20873;-73
2021/05/05 08:58:36;;;;;;;2.93;1.30;;;;;;;9.44;59.70;95637.50;4924324;29;20447;-74
2021/05/05 09:01:04;;;;;;;4.50;1.20;;;;;;;9.60;61.50;95632.84;4926426;29;20788;-75
2021/05/05 09:03:34;;;;;;;1.50;0.80;;;;;;;9.76;61.66;95638.59;4925304;29;20760;-76
2021/05/05 09:06:04;;;;;;;6.23;1.20;;;;;;;9.43;62.13;95625.47;4921328;29;20488;-74
2021/05/05 09:08:31;;;;;;;5.10;1.40;;;;;;;9.47;62.29;95626.91;4903267;29;20965;-75
2021/05/05 09:11:04;;;;;;;4.50;0.90;;;;;;;9.45;62.57;95633.97;4919569;29;20899;-76
2021/05/05 09:13:51;;;;;;;7.43;1.40;;;;;;;9.00;62.96;95632.09;4923276;28;20848;-76
2021/05/05 09:16:22;;;;;;;6.07;1.33;;;;;;;9.18;61.13;95629.94;4929369;29;20788;-73
2021/05/05 09:19:04;;;;;;;5.07;1.20;;;;;;;9.44;61.27;95629.72;4924429;29;20797;-74
2021/05/05 09:21:36;;;;;;;7.70;1.07;;;;;;;9.73;59.48;95632.78;4921262;28;20467;-72
2021/05/05 09:24:18;;;;;;;5.13;1.00;;;;;;;9.96;58.31;95635.31;4901365;29;20463;-76
2021/05/05 09:26:46;;;;;;;2.50;1.50;;;;;;;10.19;58.20;95631.03;4921022;29;20448;-76
2021/05/05 09:29:13;;;;;;;8.83;1.20;;;;;;;10.06;57.73;95628.53;4924432;28;20541;-76
2021/05/05 09:31:42;;;;;;;4.00;1.20;;;;;;;9.98;56.62;95630.00;4912301;29;20451;-76
2021/05/05 09:34:11;;;;;;;2.27;1.00;;;;;;;9.92;54.52;95636.50;4921029;28;21172;-76
2021/05/05 09:36:40;;;;;;;5.13;1.20;;;;;;;9.74;55.67;95640.44;4925663;29;20807;-75
2021/05/05 09:39:09;;;;;;;3.13;0.97;;;;;;;9.61;57.51;95637.13;4928337;28;20469;-75
2021/05/05 09:41:42;;;;;;;5.97;1.20;;;;;;;10.19;56.87;95629.28;4923997;29;20451;-76
2021/05/05 09:44:10;;;;;;;7.53;1.17;;;;;;;10.16;56.07;95634.69;4924944;28;20784;-76
2021/05/05 09:46:42;;;;;;;3.83;0.93;;;;;;;10.04;56.68;95647.78;4925640;29;20865;-76
2021/05/05 09:49:18;;;;;;;2.93;1.30;;;;;;;10.40;54.68;95630.19;4929236;29;20807;-74
2021/05/05 09:51:47;;;;;;;1.40;0.80;;;;;;;10.44;54.07;95636.84;4923685;29;20474;-76
2021/05/05 09:54:22;;;;;;;9.77;1.30;;;;;;;10.38;55.32;95629.50;4919281;29;20562;-76
2021/05/05 09:56:49;;;;;;;4.33;1.50;;;;;;;10.10;54.19;95627.34;4919049;29;20446;-76
2021/05/05 09:59:16;;;;;;;1.97;1.07;;;;;;;9.69;53.52;95618.34;4918891;29;20470;-75
2021/05/05 10:01:59;;;;;;;6.60;0.80;;;;;;;9.68;54.86;95643.53;4920385;29;20904;-75
2021/05/05 10:04:27;;;;;;;2.70;1.07;;;;;;;9.72;53.06;95626.75;4926960;28;20463;-76
2021/05/05 10:07:00;;;;;;;2.90;0.83;;;;;;;9.68;53.71;95634.91;4903459;29;20949;-76
2021/05/05 10:09:27;;;;;;;4.73;1.17;;;;;;;10.01;53.96;95622.81;4927384;29;20472;-75
2021/05/05 10:11:55;;;;;;;2.50;1.13;;;;;;;9.99;55.35;95634.25;4926016;29;20432;-75
2021/05/05 10:14:23;;;;;;;10.03;1.33;;;;;;;10.32;53.98;95632.56;4917995;29;20974;-75
2021/05/05 10:16:52;;;;;;;2.23;0.90;;;;;;;10.10;53.69;95652.53;4902942;29;20466;-76
2021/05/05 10:19:22;;;;;;;3.47;0.83;;;;;;;9.80;54.65;95647.78;4918518;29;20466;-75
2021/05/05 10:21:54;;;;;;;4.60;1.17;;;;;;;9.88;54.08;95642.84;4918580;29;21148;-76
2021/05/05 10:24:23;;;;;;;11.80;1.33;;;;;;;9.91;54.39;95652.19;4924972;29;20538;-75
2021/05/05 10:26:50;;;;;;;10.80;1.30;;;;;;;9.96;55.04;95663.09;4926612;29;20916;-74
2021/05/05 10:29:18;;;;;;;7.70;1.23;;;;;;;9.96;55.86;95683.88;4924101;29;20511;-74
2021/05/05 10:31:49;;;;;;;4.50;1.23;;;;;;;9.67;60.52;95732.78;4924092;29;20480;-73
2021/05/05 10:34:21;;;;;;;4.80;0.60;;;;;;;8.00;76.68;95770.47;4924369;28;20982;-73
2021/05/05 10:36:51;;;;;;;1.52;0.70;;;;;;;6.60;85.05;95818.16;4919557;29;20462;-73
2021/05/05 10:39:34;;;;;;;1.98;0.70;;;;;;;5.87;89.90;95814.72;4931787;28;20242;-72
2021/05/05 10:42:15;;;;;;;0.80;0.50;;;;;;;5.27;91.80;95829.22;4910399;29;20659;-72
2021/05/05 10:44:49;;;;;;;0.80;0.52;;;;;;;4.81;95.76;95845.44;4927391;28;20216;-71
2021/05/05 10:47:27;;;;;;;0.80;0.50;;;;;;;4.55;96.98;95848.53;4929349;29;20629;-73
2021/05/05 10:50:15;;;;;;;0.77;0.50;;;;;;;4.49;98.30;95853.13;4912756;28;20231;-76
2021/05/05 10:53:02;;;;;;;1.10;0.80;;;;;;;4.42;99.57;95844.03;4920574;29;20632;-75
2021/05/05 10:55:38;;;;;;;1.23;0.70;;;;;;;4.42;99.97;95841.47;4922504;28;20687;-75
2021/05/05 10:58:09;;;;;;;1.25;0.52;;;;;;;4.51;98.88;95835.88;4927027;29;20195;-74
2021/05/05 11:00:44;;;;;;;2.47;1.10;;;;;;;4.85;99.33;95846.09;4918685;29;20227;-74
2021/05/05 11:03:11;;;;;;;0.98;0.85;;;;;;;5.02;97.71;95844.31;4904196;28;20585;-76
2021/05/05 11:05:39;;;;;;;1.55;0.85;;;;;;;5.23;98.50;95847.53;4927141;29;20336;-74
2021/05/05 11:08:08;;;;;;;1.75;0.60;;;;;;;5.25;96.46;95861.97;4947122;28;20190;-74
2021/05/05 11:10:55;;;;;;;2.50;1.08;;;;;;;5.24;96.37;95849.19;4938121;28;20233;-71
2021/05/05 11:13:40;;;;;;;1.05;0.70;;;;;;;5.46;94.92;95829.06;4942278;28;20744;-73
2021/05/05 11:16:08;;;;;;;0.80;0.60;;;;;;;5.87;96.51;95832.78;4936301;28;20572;-74
2021/05/05 11:18:48;;;;;;;1.83;0.80;;;;;;;6.58;96.23;95824.31;4942574;28;20198;-72
2021/05/05 11:21:43;;;;;;;1.20;0.70;;;;;;;6.83;88.88;95824.53;4938983;28;20556;-73
2021/05/05 11:24:30;;;;;;;2.00;1.33;;;;;;;7.40;91.02;95814.06;4942532;28;20785;-74
2021/05/05 11:26:59;;;;;;;1.50;0.70;;;;;;;7.54;86.71;95818.38;4937286;28;20202;-72
2021/05/05 11:29:46;;;;;;;3.70;1.02;;;;;;;7.69;89.24;95823.44;4943419;28;20781;-73
2021/05/05 11:32:16;;;;;;;3.75;0.80;;;;;;;8.11;85.62;95830.22;4937412;28;20175;-73
2021/05/05 11:34:45;;;;;;;2.38;0.68;;;;;;;8.07;84.88;95826.16;4917784;28;20227;-74
2021/05/05 11:37:18;;;;;;;0.90;0.70;;;;;;;8.13;83.19;95827.41;4938101;28;20218;-73
2021/05/05 11:39:47;;;;;;;3.30;1.25;;;;;;;8.45;85.20;95836.56;4943242;28;20234;-74
2021/05/05 11:42:17;;;;;;;1.70;1.00;;;;;;;8.50;81.60;95824.13;4941520;28;20578;-73
2021/05/05 11:45:06;;;;;;;4.43;1.20;;;;;;;8.60;84.16;95832.97;4937266;28;20293;-74
2021/05/05 11:47:35;;;;;;;1.23;0.70;;;;;;;8.76;80.47;95835.34;4941274;28;20450;-73
2021/05/05 11:50:05;;;;;;;4.60;0.90;;;;;;;8.87;82.27;95825.09;4941999;28;20969;-72
2021/05/05 11:52:34;;;;;;;4.03;1.33;;;;;;;9.29;80.72;95825.56;4946709;28;20451;-72